La Marque, Texas
Current Conditions -  °F | °C
As of 11:52 PM on Friday 19 Dec 2014 (Local Time) from KGLS Reporting Station
Light Rain Light Rain  
Wind Chill: 53°   Ceiling: 700
Heat Index: 53°   Visibility: 10mi
Dew Point: 53°   Wind: 21mph
Humidity: 100%   Direction: 360°N
Pressure: 30.12"   Gusts: NA
Location:  29.37°N, 94.97°W
Report Text: KGLS 200552Z AUTO 36018KT 10SM -RA OVC007 12/12 A3012 RMK AO1 SLP198 P0000 60001 T01170117 10133 20117 401780117 51010
Loading
Personal Weather Stations






























Interactive Weather Map New forecast layout! Learn more

10-Day Weather Forecast

Advertisements
Track Severe Weather on mobile